createdAt,value
2024-02-24T00:00:20.658Z,6.22
2024-02-24T00:04:02.993Z,8.68
2024-02-24T00:07:45.174Z,5.68
2024-02-24T00:11:31.616Z,8.88
2024-02-24T00:15:15.782Z,7.90
2024-02-24T00:19:00.524Z,7.68
2024-02-24T00:22:42.764Z,11.23
2024-02-24T00:26:25.528Z,10.32
2024-02-24T00:30:10.003Z,13.80
2024-02-24T00:33:52.041Z,8.00
2024-02-24T00:37:34.103Z,9.80
2024-02-24T00:41:16.796Z,6.38
2024-02-24T00:44:58.853Z,7.40
2024-02-24T00:48:42.366Z,6.13
2024-02-24T00:52:27.240Z,7.45
2024-02-24T00:56:09.564Z,7.35
2024-02-24T00:59:52.239Z,11.20
2024-02-24T01:03:34.634Z,5.90
2024-02-24T01:07:17.160Z,9.60
2024-02-24T01:10:59.531Z,10.15
2024-02-24T01:14:41.803Z,7.10
2024-02-24T01:18:24.681Z,8.18
2024-02-24T01:22:07.638Z,5.60
2024-02-24T01:25:49.684Z,10.02
2024-02-24T01:29:32.844Z,6.60
2024-02-24T01:33:15.104Z,9.73
2024-02-24T01:36:57.966Z,10.52
2024-02-24T01:40:39.938Z,8.77
2024-02-24T01:44:21.957Z,9.23
2024-02-24T01:48:05.278Z,7.32
2024-02-24T01:51:47.848Z,6.40
2024-02-24T01:55:30.189Z,6.88
2024-02-24T01:59:12.333Z,7.18
2024-02-24T02:02:55.479Z,6.53
2024-02-24T02:06:38.368Z,7.13
2024-02-24T02:10:20.494Z,7.72
2024-02-24T02:14:02.526Z,8.48
2024-02-24T02:17:44.688Z,6.78
2024-02-24T02:21:28.063Z,6.65
2024-02-24T02:25:10.110Z,6.82
2024-02-24T02:28:52.169Z,6.35
2024-02-24T02:32:34.530Z,7.88
2024-02-24T02:36:16.656Z,6.03
2024-02-24T02:40:02.454Z,6.20
2024-02-24T02:43:45.436Z,5.85
2024-02-24T02:47:27.719Z,6.03
2024-02-24T02:51:09.786Z,6.70
2024-02-24T02:54:53.568Z,5.88
2024-02-24T02:58:35.664Z,6.68
2024-02-24T03:02:17.686Z,8.30
2024-02-24T03:05:59.715Z,8.80
2024-02-24T03:09:47.873Z,6.35
2024-02-24T03:13:30.280Z,6.32
2024-02-24T03:17:12.279Z,5.88
2024-02-24T03:20:54.332Z,6.60
2024-02-24T03:24:36.485Z,6.18
2024-02-24T03:28:18.592Z,7.15
2024-02-24T03:32:01.801Z,3.60
2024-02-24T03:35:43.792Z,6.18
2024-02-24T03:39:25.788Z,9.23
2024-02-24T03:43:07.815Z,6.28
2024-02-24T03:46:49.899Z,3.92
2024-02-24T03:50:32.028Z,6.82
2024-02-24T03:54:14.111Z,5.88
2024-02-24T03:57:56.445Z,6.03
2024-02-24T04:01:41.673Z,5.25
2024-02-24T04:05:26.676Z,6.13
2024-02-24T04:09:08.808Z,3.60
2024-02-24T04:12:50.799Z,8.63
2024-02-24T04:16:32.776Z,5.13
2024-02-24T04:20:15.982Z,4.15
2024-02-24T04:23:58.106Z,5.47
2024-02-24T04:27:40.084Z,5.40
2024-02-24T04:31:23.089Z,5.40
2024-02-24T04:35:05.535Z,4.15
2024-02-24T04:38:47.613Z,3.65
2024-02-24T04:42:29.663Z,4.03
2024-02-24T04:46:11.660Z,3.03
2024-02-24T04:49:53.855Z,5.68
2024-02-24T04:53:35.883Z,6.30
2024-02-24T04:57:17.933Z,5.80
2024-02-24T05:01:00.073Z,5.30
2024-02-24T05:04:42.175Z,4.32
2024-02-24T05:08:24.268Z,7.13
2024-02-24T05:12:07.155Z,5.55
2024-02-24T05:15:49.312Z,5.65
2024-02-24T05:19:35.037Z,4.32
2024-02-24T05:23:17.856Z,4.43
2024-02-24T05:26:59.881Z,6.15
2024-02-24T05:30:41.855Z,4.07
2024-02-24T05:34:24.917Z,6.03
2024-02-24T05:38:07.054Z,6.65
2024-02-24T05:41:50.529Z,8.35
2024-02-24T05:45:32.501Z,4.88
2024-02-24T05:49:17.347Z,6.38
2024-02-24T05:52:59.385Z,6.22
2024-02-24T05:56:42.701Z,7.57
2024-02-24T06:00:24.719Z,2.78
2024-02-24T06:04:06.841Z,4.13
2024-02-24T06:07:48.817Z,3.20
2024-02-24T06:11:30.912Z,5.10
2024-02-24T06:15:12.985Z,6.43
2024-02-24T06:18:55.189Z,5.47
2024-02-24T06:22:37.195Z,6.18
2024-02-24T06:26:19.302Z,7.13
2024-02-24T06:30:01.328Z,5.20
2024-02-24T06:33:47.036Z,4.65
2024-02-24T06:37:29.089Z,4.18
2024-02-24T06:41:11.154Z,3.47
2024-02-24T06:44:53.418Z,3.60
2024-02-24T06:48:35.526Z,7.07
2024-02-24T06:52:17.588Z,4.15
2024-02-24T06:56:09.185Z,3.45
2024-02-24T06:59:51.301Z,4.85
2024-02-24T07:03:34.704Z,6.70
2024-02-24T07:07:17.643Z,4.93
2024-02-24T07:10:59.687Z,5.55
2024-02-24T07:14:41.726Z,4.35
2024-02-24T07:18:23.782Z,6.28
2024-02-24T07:22:05.942Z,3.65
2024-02-24T07:25:47.917Z,6.95
2024-02-24T07:29:30.579Z,3.33
2024-02-24T07:33:16.062Z,2.78
2024-02-24T07:36:59.657Z,6.72
2024-02-24T07:40:42.786Z,6.32
2024-02-24T07:44:24.786Z,3.85
2024-02-24T07:48:10.126Z,4.68
2024-02-24T07:51:52.529Z,6.57
2024-02-24T07:55:34.573Z,6.80
2024-02-24T07:59:16.568Z,5.93
2024-02-24T08:02:58.682Z,11.68
2024-02-24T08:06:40.738Z,6.63
2024-02-24T08:10:23.736Z,7.88
2024-02-24T08:14:09.160Z,6.82
2024-02-24T08:17:52.911Z,5.65
2024-02-24T08:21:39.177Z,7.57
2024-02-24T08:25:21.604Z,7.30
2024-02-24T08:29:04.149Z,5.55
2024-02-24T08:32:47.955Z,4.90
2024-02-24T08:36:31.161Z,7.75
2024-02-24T08:40:16.904Z,7.07
2024-02-24T08:44:02.471Z,4.93
2024-02-24T08:47:44.834Z,7.05
2024-02-24T08:51:27.686Z,3.35
2024-02-24T08:55:09.783Z,8.68
2024-02-24T08:58:52.341Z,5.72
2024-02-24T09:02:34.863Z,6.28
2024-02-24T09:06:19.689Z,7.70
2024-02-24T09:10:04.735Z,4.38
2024-02-24T09:13:48.697Z,3.90
2024-02-24T09:17:30.781Z,4.25
2024-02-24T09:21:14.743Z,6.82
2024-02-24T09:24:56.767Z,3.70
2024-02-24T09:28:39.118Z,8.00
2024-02-24T09:32:21.991Z,5.03
2024-02-24T09:36:04.258Z,4.60
2024-02-24T09:39:47.627Z,6.85
2024-02-24T09:43:31.100Z,3.65
2024-02-24T09:47:14.459Z,5.95
2024-02-24T09:51:01.015Z,3.67
2024-02-24T09:54:51.880Z,3.97
2024-02-24T09:58:35.443Z,6.28
2024-02-24T10:02:18.427Z,4.25
2024-02-24T10:06:01.048Z,4.30
2024-02-24T10:09:43.087Z,10.43
2024-02-24T10:13:25.131Z,4.63
2024-02-24T10:17:08.388Z,5.63
2024-02-24T10:20:52.727Z,8.32
2024-02-24T10:24:36.105Z,6.28
2024-02-24T10:28:18.247Z,5.10
2024-02-24T10:32:01.432Z,3.08
2024-02-24T10:35:44.422Z,5.72
2024-02-24T10:39:28.218Z,3.70
2024-02-24T10:43:11.182Z,4.63
2024-02-24T10:46:53.280Z,5.68
2024-02-24T10:50:37.143Z,6.60
2024-02-24T10:54:24.582Z,4.78
2024-02-24T10:58:08.400Z,4.25
2024-02-24T11:01:52.023Z,5.07
2024-02-24T11:05:36.145Z,3.15
2024-02-24T11:09:34.530Z,5.00
2024-02-24T11:13:16.588Z,2.55
2024-02-24T11:17:01.432Z,3.05
2024-02-24T11:20:43.674Z,2.63
2024-02-24T11:24:37.137Z,2.88
2024-02-24T11:28:24.221Z,2.05
2024-02-24T11:32:18.021Z,3.40
2024-02-24T11:36:01.955Z,1.58
2024-02-24T11:39:45.836Z,2.28
2024-02-24T11:43:29.178Z,1.58
2024-02-24T11:47:15.286Z,1.75
2024-02-24T11:51:00.594Z,1.17
2024-02-24T11:54:49.233Z,1.20
2024-02-24T11:58:32.357Z,2.92
2024-02-24T12:02:15.742Z,1.38
2024-02-24T12:06:08.409Z,1.73
2024-02-24T12:09:52.505Z,1.40
2024-02-24T12:13:38.248Z,1.83
2024-02-24T12:17:21.876Z,1.85
2024-02-24T12:21:06.425Z,1.40
2024-02-24T12:24:48.562Z,2.15
2024-02-24T12:28:33.069Z,1.92
2024-02-24T12:32:15.180Z,1.85
2024-02-24T12:35:57.534Z,3.13
2024-02-24T12:39:44.014Z,1.85
2024-02-24T12:43:25.994Z,0.98
2024-02-24T12:47:08.035Z,5.03
2024-02-24T12:50:51.002Z,2.90
2024-02-24T12:54:33.378Z,1.70
2024-02-24T12:58:17.926Z,3.55
2024-02-24T13:02:01.186Z,3.92
2024-02-24T13:05:43.197Z,2.28
2024-02-24T13:09:27.548Z,3.15
2024-02-24T13:13:09.727Z,1.77
2024-02-24T13:16:51.761Z,1.80
2024-02-24T13:20:34.028Z,1.40
2024-02-24T13:24:16.117Z,4.90
2024-02-24T13:27:58.248Z,1.98
2024-02-24T13:31:40.362Z,1.38
2024-02-24T13:35:22.366Z,1.52
2024-02-24T13:39:05.599Z,3.10
2024-02-24T13:42:48.944Z,2.63
2024-02-24T13:46:31.513Z,2.13
2024-02-24T13:50:13.695Z,1.42
2024-02-24T13:53:55.845Z,4.13
2024-02-24T13:57:39.052Z,1.60
2024-02-24T14:01:22.230Z,3.38
2024-02-24T14:05:06.556Z,3.53
2024-02-24T14:08:49.802Z,2.90
2024-02-24T14:12:31.863Z,2.33
2024-02-24T14:16:13.899Z,3.58
2024-02-24T14:19:56.568Z,3.05
2024-02-24T14:23:39.221Z,2.05
2024-02-24T14:27:21.264Z,1.15
2024-02-24T14:31:06.177Z,2.90
2024-02-24T14:34:48.297Z,2.13
2024-02-24T14:38:30.397Z,1.45
2024-02-24T14:42:12.787Z,2.22
2024-02-24T14:46:01.230Z,2.08
2024-02-24T14:49:43.477Z,3.03
2024-02-24T14:53:27.955Z,1.48
2024-02-24T14:57:13.770Z,1.02
2024-02-24T15:00:56.127Z,1.33
2024-02-24T15:04:38.620Z,2.15
2024-02-24T15:08:21.118Z,1.20
2024-02-24T15:12:03.459Z,1.65
2024-02-24T15:15:45.451Z,2.38
2024-02-24T15:19:28.005Z,1.05
2024-02-24T15:23:10.720Z,1.67
2024-02-24T15:26:56.903Z,1.08
2024-02-24T15:30:40.830Z,1.30
2024-02-24T15:34:28.664Z,2.30
2024-02-24T15:38:13.672Z,1.25
2024-02-24T15:41:56.811Z,0.80
2024-02-24T15:45:39.792Z,4.20
2024-02-24T15:49:21.948Z,0.90
2024-02-24T15:53:04.164Z,1.38
2024-02-24T15:56:53.692Z,1.08
2024-02-24T16:00:38.620Z,2.33
2024-02-24T16:04:20.627Z,2.33
2024-02-24T16:08:03.345Z,5.03
2024-02-24T16:11:48.467Z,1.60
2024-02-24T16:15:30.788Z,1.30
2024-02-24T16:19:14.495Z,1.23
2024-02-24T16:22:59.110Z,0.85
2024-02-24T16:26:41.200Z,2.30
2024-02-24T16:30:24.122Z,3.00
2024-02-24T16:34:06.958Z,1.00
2024-02-24T16:37:50.352Z,2.42
2024-02-24T16:41:35.915Z,1.65
2024-02-24T16:45:17.953Z,1.77
2024-02-24T16:49:00.441Z,2.47
2024-02-24T16:52:42.561Z,1.45
2024-02-24T16:56:24.625Z,1.15
2024-02-24T17:00:10.035Z,2.35
2024-02-24T17:03:52.656Z,2.95
2024-02-24T17:07:35.428Z,2.47
2024-02-24T17:11:21.670Z,2.83
2024-02-24T17:15:05.940Z,2.22
2024-02-24T17:18:50.440Z,2.72
2024-02-24T17:22:34.301Z,4.25
2024-02-24T17:26:17.842Z,4.05
2024-02-24T17:30:00.457Z,3.17
2024-02-24T17:33:49.225Z,3.72
2024-02-24T17:37:35.259Z,2.72
2024-02-24T17:41:17.390Z,1.90
2024-02-24T17:48:42.901Z,2.33
2024-02-24T17:52:29.643Z,1.90
2024-02-24T17:56:13.573Z,1.90
2024-02-24T17:59:55.643Z,3.20
2024-02-24T18:03:37.770Z,3.83
2024-02-24T18:07:19.976Z,3.63
2024-02-24T18:11:01.975Z,3.13
2024-02-24T18:14:46.955Z,3.20
2024-02-24T18:18:29.131Z,5.22
2024-02-24T18:22:14.459Z,4.53
2024-02-24T18:25:57.972Z,5.05
2024-02-24T18:29:45.822Z,5.05
2024-02-24T18:33:30.235Z,7.63
2024-02-24T18:37:13.419Z,6.47
2024-02-24T18:40:55.460Z,9.23
2024-02-24T18:44:40.010Z,5.93
2024-02-24T18:48:23.726Z,7.03
2024-02-24T18:52:08.817Z,9.48
2024-02-24T18:55:51.435Z,8.93
2024-02-24T18:59:33.712Z,11.65
2024-02-24T19:03:15.825Z,13.43
2024-02-24T19:06:58.556Z,11.35
2024-02-24T19:10:41.889Z,13.40
2024-02-24T19:14:24.129Z,13.00
2024-02-24T19:18:12.712Z,12.48
2024-02-24T19:21:55.958Z,13.68
2024-02-24T19:25:38.023Z,15.23
2024-02-24T19:29:21.304Z,14.90
2024-02-24T19:33:03.860Z,14.90
2024-02-24T19:36:49.480Z,15.10
2024-02-24T19:40:34.644Z,18.73
2024-02-24T19:44:20.887Z,16.55
2024-02-24T19:48:04.766Z,16.67
2024-02-24T19:51:48.049Z,15.88
2024-02-24T19:55:33.030Z,14.63
2024-02-24T19:59:16.067Z,14.98
2024-02-24T20:02:58.646Z,15.63
2024-02-24T20:06:42.247Z,9.10
2024-02-24T20:10:27.585Z,9.50
2024-02-24T20:14:13.054Z,8.65
2024-02-24T20:17:57.891Z,8.48
2024-02-24T20:21:40.377Z,11.52
2024-02-24T20:25:22.512Z,11.73
2024-02-24T20:29:09.038Z,12.77
2024-02-24T20:32:54.553Z,14.00
2024-02-24T20:36:37.275Z,12.43
2024-02-24T20:40:20.544Z,13.43
2024-02-24T20:44:02.814Z,13.65
2024-02-24T20:47:45.160Z,12.20
2024-02-24T20:51:30.157Z,13.35
2024-02-24T20:55:12.342Z,17.85
2024-02-24T20:58:58.060Z,10.63
2024-02-24T21:02:45.614Z,10.68
2024-02-24T21:06:28.353Z,10.82
2024-02-24T21:10:14.872Z,14.23
2024-02-24T21:14:01.257Z,9.98
2024-02-24T21:17:46.571Z,12.32
2024-02-24T21:21:33.868Z,12.00
2024-02-24T21:25:20.390Z,14.25
2024-02-24T21:29:05.254Z,14.82
2024-02-24T21:32:47.685Z,11.63
2024-02-24T21:36:29.994Z,12.75
2024-02-24T21:40:13.992Z,11.48
2024-02-24T21:43:59.136Z,13.45
2024-02-24T21:47:42.418Z,10.98
2024-02-24T21:51:24.773Z,9.32
2024-02-24T21:55:06.967Z,10.07
2024-02-24T21:58:48.960Z,10.18
2024-02-24T22:02:31.752Z,10.32
2024-02-24T22:06:16.526Z,10.30
2024-02-24T22:10:04.813Z,10.55
2024-02-24T22:13:53.143Z,7.53
2024-02-24T22:17:35.191Z,8.77
2024-02-24T22:21:18.948Z,10.02
2024-02-24T22:25:02.820Z,8.30
2024-02-24T22:28:46.400Z,8.95
2024-02-24T22:32:29.373Z,8.93
2024-02-24T22:36:12.827Z,9.23
2024-02-24T22:39:57.609Z,9.25
2024-02-24T22:43:39.845Z,10.55
2024-02-24T22:47:25.600Z,9.43
2024-02-24T22:51:14.286Z,12.05
2024-02-24T22:54:57.377Z,12.68
2024-02-24T22:58:42.397Z,13.27
2024-02-24T23:02:24.629Z,10.40
2024-02-24T23:06:08.609Z,11.68
2024-02-24T23:09:52.978Z,9.25
2024-02-24T23:13:35.032Z,12.23
2024-02-24T23:17:19.980Z,9.63
2024-02-24T23:21:02.145Z,11.82
2024-02-24T23:24:45.548Z,12.38
2024-02-24T23:28:27.571Z,14.32
2024-02-24T23:32:11.309Z,12.68
2024-02-24T23:35:53.349Z,10.00
2024-02-24T23:39:35.370Z,11.25
2024-02-24T23:43:17.429Z,10.93
2024-02-24T23:47:00.943Z,11.55
2024-02-24T23:50:43.007Z,9.02
2024-02-24T23:54:28.760Z,8.70
2024-02-24T23:58:10.778Z,10.75
